createdAt,value
2023-01-03T00:00:13.302Z,100781.03
2023-01-03T00:02:42.425Z,100772.25
2023-01-03T00:05:10.681Z,100773.16
2023-01-03T00:07:38.326Z,100702.97
2023-01-03T00:10:08.229Z,100781.75
2023-01-03T00:12:36.173Z,100751.06
2023-01-03T00:15:04.138Z,100743.06
2023-01-03T00:17:31.801Z,100771.19
2023-01-03T00:20:00.869Z,100785.13
2023-01-03T00:22:28.537Z,100776.38
2023-01-03T00:24:59.303Z,100728.03
2023-01-03T00:27:27.371Z,100762.28
2023-01-03T00:29:55.031Z,100781.56
2023-01-03T00:32:22.894Z,100790.25
2023-01-03T00:34:50.560Z,100788.47
2023-01-03T00:37:19.600Z,100791.13
2023-01-03T00:39:47.272Z,100785.97
2023-01-03T00:42:14.929Z,100782.50
2023-01-03T00:44:42.538Z,100780.75
2023-01-03T00:47:10.167Z,100764.97
2023-01-03T00:49:37.768Z,100785.16
2023-01-03T00:52:05.643Z,100782.56
2023-01-03T00:54:34.566Z,100773.75
2023-01-03T00:57:02.264Z,100788.66
2023-01-03T00:59:30.091Z,100785.13
2023-01-03T01:01:58.497Z,100642.13
2023-01-03T01:04:27.834Z,100803.44
2023-01-03T01:06:56.185Z,100805.16
2023-01-03T01:09:24.696Z,100773.59
2023-01-03T01:11:53.711Z,100807.75
2023-01-03T01:14:22.439Z,100807.72
2023-01-03T01:16:51.713Z,100797.91
2023-01-03T01:19:21.897Z,100800.63
2023-01-03T01:21:49.541Z,100808.59
2023-01-03T01:24:18.142Z,100812.03
2023-01-03T01:26:46.290Z,100810.16
2023-01-03T01:29:15.793Z,100819.78
2023-01-03T01:31:43.627Z,100844.03
2023-01-03T01:34:11.607Z,100829.25
2023-01-03T01:36:41.834Z,100828.31
2023-01-03T01:39:11.320Z,100831.75
2023-01-03T01:41:56.887Z,100786.97
2023-01-03T01:44:54.881Z,100843.97
2023-01-03T01:47:35.518Z,100845.44
2023-01-03T01:50:08.155Z,100840.28
2023-01-03T01:52:37.652Z,100811.97
2023-01-03T01:55:06.424Z,100848.94
2023-01-03T01:57:34.032Z,100858.44
2023-01-03T02:00:03.201Z,100817.03
2023-01-03T02:02:30.982Z,100858.28
2023-01-03T02:04:58.783Z,100864.25
2023-01-03T02:07:26.348Z,100867.72
2023-01-03T02:09:55.623Z,100850.69
2023-01-03T02:12:47.844Z,100865.78
2023-01-03T02:15:23.523Z,100863.97
2023-01-03T02:17:59.915Z,100825.06
2023-01-03T02:20:33.527Z,100872.56
2023-01-03T02:23:26.636Z,100874.34
2023-01-03T02:26:25.159Z,100847.03
2023-01-03T02:29:07.421Z,100885.81
2023-01-03T02:31:39.377Z,100885.06
2023-01-03T02:34:09.917Z,100808.72
2023-01-03T02:36:42.012Z,100855.25
2023-01-03T02:39:13.152Z,100844.94
2023-01-03T02:41:43.054Z,100879.38
2023-01-03T02:44:16.843Z,100866.31
2023-01-03T02:46:47.720Z,100887.44
2023-01-03T02:49:18.792Z,100810.16
2023-01-03T02:51:47.042Z,100889.25
2023-01-03T02:54:18.475Z,100887.63
2023-01-03T02:56:48.562Z,100888.56
2023-01-03T02:59:17.769Z,100888.59
2023-01-03T03:01:50.061Z,100895.63
2023-01-03T03:04:18.831Z,100898.25
2023-01-03T03:06:48.553Z,100883.47
2023-01-03T03:09:16.218Z,100885.19
2023-01-03T03:12:01.801Z,100884.28
2023-01-03T03:14:31.857Z,100848.91
2023-01-03T03:17:01.872Z,100888.53
2023-01-03T03:19:48.519Z,100859.50
2023-01-03T03:22:38.619Z,100880.63
2023-01-03T03:25:08.881Z,100858.72
2023-01-03T03:27:53.896Z,100848.91
2023-01-03T03:30:21.723Z,100898.94
2023-01-03T03:32:51.036Z,100902.53
2023-01-03T03:35:18.747Z,100899.94
2023-01-03T03:37:46.979Z,100905.19
2023-01-03T03:40:32.163Z,100901.69
2023-01-03T03:43:20.848Z,100898.22
2023-01-03T03:45:51.484Z,100883.19
2023-01-03T03:48:22.944Z,100897.28
2023-01-03T03:50:52.006Z,100898.19
2023-01-03T03:53:21.025Z,100903.31
2023-01-03T03:55:49.951Z,100899.75
2023-01-03T03:58:19.619Z,100899.69
2023-01-03T04:00:47.824Z,100901.38
2023-01-03T04:03:15.811Z,100896.94
2023-01-03T04:05:47.751Z,100856.34
2023-01-03T04:08:15.437Z,100892.47
2023-01-03T04:10:43.192Z,100903.88
2023-01-03T04:13:13.020Z,100907.31
2023-01-03T04:15:40.583Z,100900.28
2023-01-03T04:18:08.299Z,100900.25
2023-01-03T04:20:35.897Z,100891.41
2023-01-03T04:23:05.111Z,100902.81
2023-01-03T04:25:32.653Z,100901.94
2023-01-03T04:28:00.297Z,100898.44
2023-01-03T04:30:27.975Z,100905.41
2023-01-03T04:32:56.454Z,100904.53
2023-01-03T04:35:24.095Z,100890.56
2023-01-03T04:37:51.749Z,100891.22
2023-01-03T04:40:20.692Z,100881.56
2023-01-03T04:43:20.155Z,100889.31
2023-01-03T04:45:48.909Z,100892.72
2023-01-03T04:48:16.707Z,100908.41
2023-01-03T04:50:52.117Z,100865.09
2023-01-03T04:53:19.726Z,100904.72
2023-01-03T04:55:49.052Z,100902.88
2023-01-03T04:58:16.633Z,100908.94
2023-01-03T05:00:44.458Z,100866.53
2023-01-03T05:03:12.096Z,100915.75
2023-01-03T05:05:39.836Z,100879.41
2023-01-03T05:08:07.904Z,100814.47
2023-01-03T05:10:35.796Z,100901.47
2023-01-03T05:13:04.739Z,100914.63
2023-01-03T05:15:33.288Z,100911.94
2023-01-03T05:18:00.864Z,100914.53
2023-01-03T05:20:46.279Z,100906.63
2023-01-03T05:23:32.208Z,100908.31
2023-01-03T05:25:59.888Z,100913.47
2023-01-03T05:28:28.949Z,100906.31
2023-01-03T05:30:58.558Z,100894.09
2023-01-03T05:33:26.208Z,100911.69
2023-01-03T05:35:53.779Z,100903.84
2023-01-03T05:38:21.511Z,100898.63
2023-01-03T05:40:49.132Z,100899.47
2023-01-03T05:43:16.860Z,100892.34
2023-01-03T05:45:50.145Z,100880.22
2023-01-03T05:48:17.860Z,100826.47
2023-01-03T05:50:45.534Z,100908.88
2023-01-03T05:53:13.239Z,100848.06
2023-01-03T05:55:41.115Z,100931.66
2023-01-03T05:58:08.967Z,100889.72
2023-01-03T06:00:36.700Z,100759.00
2023-01-03T06:03:05.943Z,100636.50
2023-01-03T06:05:33.714Z,100929.31
2023-01-03T06:08:02.253Z,100895.88
2023-01-03T06:10:30.071Z,100668.81
2023-01-03T06:12:57.978Z,100809.63
2023-01-03T06:15:25.793Z,100838.22
2023-01-03T06:17:57.678Z,100914.72
2023-01-03T06:20:27.568Z,100909.53
2023-01-03T06:22:55.509Z,100780.94
2023-01-03T06:25:23.537Z,100678.56
2023-01-03T06:27:51.221Z,100914.00
2023-01-03T06:30:19.141Z,100936.78
2023-01-03T06:32:47.049Z,100797.69
2023-01-03T06:35:14.874Z,100550.59
2023-01-03T06:37:44.009Z,100763.97
2023-01-03T06:42:46.842Z,100921.22
2023-01-03T06:45:32.441Z,100924.69
2023-01-03T06:48:21.563Z,100930.00
2023-01-03T06:51:06.943Z,100931.81
2023-01-03T06:56:04.124Z,100866.56
2023-01-03T06:58:31.779Z,100857.75
2023-01-03T07:01:02.537Z,100741.31
2023-01-03T07:03:30.349Z,100780.22
2023-01-03T07:05:58.118Z,100918.88
2023-01-03T07:08:25.885Z,100953.72
2023-01-03T07:10:53.889Z,100899.34
2023-01-03T07:13:40.782Z,100915.41
2023-01-03T07:16:08.588Z,100932.00
2023-01-03T07:18:36.277Z,100912.72
2023-01-03T07:21:06.691Z,100934.63
2023-01-03T07:23:34.783Z,100932.06
2023-01-03T07:26:02.350Z,100927.63
2023-01-03T07:28:32.942Z,100933.69
2023-01-03T07:31:01.171Z,100900.31
2023-01-03T07:33:28.995Z,100936.25
2023-01-03T07:36:03.634Z,100929.19
2023-01-03T07:38:37.266Z,100938.75
2023-01-03T07:41:10.944Z,100939.53
2023-01-03T07:43:40.515Z,100938.63
2023-01-03T07:46:09.768Z,100907.88
2023-01-03T07:48:37.509Z,100944.78
2023-01-03T07:51:08.168Z,100945.69
2023-01-03T07:53:36.345Z,100927.31
2023-01-03T07:56:10.772Z,100938.72
2023-01-03T07:58:42.488Z,100936.13
2023-01-03T08:01:11.222Z,100951.03
2023-01-03T08:03:39.187Z,100932.78
2023-01-03T08:06:08.017Z,100938.88
2023-01-03T08:08:36.036Z,100939.69
2023-01-03T08:11:21.509Z,100978.06
2023-01-03T08:13:50.534Z,100956.22
2023-01-03T08:16:19.301Z,100950.09
2023-01-03T08:18:47.150Z,100948.38
2023-01-03T08:21:16.075Z,100911.38
2023-01-03T08:23:43.947Z,100936.97
2023-01-03T08:26:12.793Z,100955.47
2023-01-03T08:28:40.700Z,100963.59
2023-01-03T08:31:11.877Z,100963.25
2023-01-03T08:33:43.818Z,100970.63
2023-01-03T08:36:11.640Z,100957.69
2023-01-03T08:38:41.351Z,100959.44
2023-01-03T08:41:09.667Z,100950.56
2023-01-03T08:43:38.870Z,100972.44
2023-01-03T08:46:07.321Z,100967.13
2023-01-03T08:48:36.491Z,100936.38
2023-01-03T08:51:04.689Z,100972.19
2023-01-03T08:53:32.501Z,100982.66
2023-01-03T08:56:00.435Z,100968.69
2023-01-03T08:58:28.435Z,100970.44
2023-01-03T09:00:56.318Z,100968.81
2023-01-03T09:03:24.322Z,100962.69
2023-01-03T09:05:53.662Z,100955.69
2023-01-03T09:08:21.577Z,100964.47
2023-01-03T09:10:49.189Z,100960.13
2023-01-03T09:13:16.772Z,100962.75
2023-01-03T09:15:44.658Z,100956.72
2023-01-03T09:18:12.698Z,100960.28
2023-01-03T09:20:40.368Z,100973.38
2023-01-03T09:23:09.415Z,100968.03
2023-01-03T09:25:37.636Z,100973.31
2023-01-03T09:28:05.588Z,100984.78
2023-01-03T09:30:33.166Z,100990.03
2023-01-03T09:33:00.846Z,100977.81
2023-01-03T09:35:28.452Z,100975.22
2023-01-03T09:37:56.040Z,100970.81
2023-01-03T09:40:24.946Z,100982.28
2023-01-03T09:43:10.014Z,100976.19
2023-01-03T09:45:38.801Z,100980.63
2023-01-03T09:48:07.487Z,100969.16
2023-01-03T09:50:57.080Z,100974.41
2023-01-03T09:53:44.976Z,100973.50
2023-01-03T09:56:31.409Z,100984.91
2023-01-03T09:59:29.214Z,100982.44
2023-01-03T10:02:17.788Z,100989.53
2023-01-03T10:04:54.832Z,100985.19
2023-01-03T10:07:31.988Z,100993.06
2023-01-03T10:10:02.053Z,101004.41
2023-01-03T10:12:34.414Z,100992.19
2023-01-03T10:15:15.813Z,100993.06
2023-01-03T10:17:46.220Z,100993.94
2023-01-03T10:20:19.795Z,101005.34
2023-01-03T10:22:47.760Z,100982.72
2023-01-03T10:25:16.915Z,100981.97
2023-01-03T10:27:47.409Z,100969.75
2023-01-03T10:30:17.141Z,100970.59
2023-01-03T10:33:02.619Z,100982.91
2023-01-03T10:35:31.493Z,100969.84
2023-01-03T10:37:59.378Z,100980.38
2023-01-03T10:40:33.073Z,100973.34
2023-01-03T10:43:08.125Z,100964.66
2023-01-03T10:45:42.803Z,100955.03
2023-01-03T10:48:14.482Z,100956.72
2023-01-03T10:50:42.098Z,100961.97
2023-01-03T10:53:09.861Z,100959.53
2023-01-03T10:55:37.675Z,100957.06
2023-01-03T10:58:16.172Z,100944.75
2023-01-03T11:00:44.099Z,100944.69
2023-01-03T11:03:16.167Z,100944.13
2023-01-03T11:05:44.955Z,100940.84
2023-01-03T11:08:18.338Z,100920.88
2023-01-03T11:10:54.480Z,100933.34
2023-01-03T11:13:41.665Z,100938.16
2023-01-03T11:16:14.403Z,100924.66
2023-01-03T11:18:42.324Z,100923.09
2023-01-03T11:21:12.994Z,100951.31
2023-01-03T11:23:58.486Z,100934.91
2023-01-03T11:26:33.955Z,100937.63
2023-01-03T11:29:08.960Z,100935.03
2023-01-03T11:31:40.509Z,100934.19
2023-01-03T11:34:17.146Z,100928.94
2023-01-03T11:36:48.931Z,100948.22
2023-01-03T11:39:27.180Z,100901.84
2023-01-03T11:42:29.966Z,100935.16
2023-01-03T11:45:26.507Z,100936.00
2023-01-03T11:47:59.632Z,100929.84
2023-01-03T11:50:29.155Z,100904.44
2023-01-03T11:53:01.371Z,100923.72
2023-01-03T11:55:43.172Z,100910.59
2023-01-03T11:58:21.865Z,100896.50
2023-01-03T12:00:53.445Z,100901.81
2023-01-03T12:03:25.492Z,100906.19
2023-01-03T12:05:56.020Z,100908.81
2023-01-03T12:08:53.454Z,100895.69
2023-01-03T12:11:36.823Z,100898.34
2023-01-03T12:14:07.266Z,100886.06
2023-01-03T12:16:38.100Z,100884.28
2023-01-03T12:19:12.540Z,100884.28
2023-01-03T12:21:42.107Z,100879.88
2023-01-03T12:24:13.805Z,100879.88
2023-01-03T12:26:43.319Z,100879.91
2023-01-03T12:29:14.202Z,100884.28
2023-01-03T12:31:45.416Z,100886.91
2023-01-03T12:34:20.440Z,100829.13
2023-01-03T12:36:51.830Z,100867.66
2023-01-03T12:39:49.359Z,100873.78
2023-01-03T12:42:22.368Z,100872.94
2023-01-03T12:44:52.237Z,100871.13
2023-01-03T12:47:26.689Z,100864.81
2023-01-03T12:49:56.009Z,100862.69
2023-01-03T12:52:23.670Z,100868.88
2023-01-03T12:57:42.873Z,100862.75
2023-01-03T13:00:23.679Z,100866.91
2023-01-03T13:02:54.282Z,100875.28
2023-01-03T13:05:25.470Z,100863.41
2023-01-03T13:08:06.152Z,100857.34
2023-01-03T13:10:34.800Z,100850.31
2023-01-03T13:13:02.483Z,100823.22
2023-01-03T13:15:36.111Z,100828.56
2023-01-03T13:18:31.806Z,100857.56
2023-01-03T13:20:59.461Z,100860.31
2023-01-03T13:23:35.439Z,100859.53
2023-01-03T13:26:18.361Z,100786.94
2023-01-03T13:28:45.987Z,100863.09
2023-01-03T13:31:38.684Z,100741.47
2023-01-03T13:34:16.907Z,100853.50
2023-01-03T13:37:22.051Z,100857.91
2023-01-03T13:40:18.114Z,100833.44
2023-01-03T13:42:45.785Z,100854.47
2023-01-03T13:45:56.171Z,100857.97
2023-01-03T13:48:34.045Z,100787.94
2023-01-03T13:51:47.155Z,100865.88
2023-01-03T13:54:45.557Z,100850.09
2023-01-03T13:57:31.765Z,100836.09
2023-01-03T14:00:00.317Z,100809.84
2023-01-03T14:02:55.455Z,100838.72
2023-01-03T14:05:42.191Z,100795.81
2023-01-03T14:08:27.216Z,100790.53
2023-01-03T14:11:16.994Z,100857.16
2023-01-03T14:13:45.894Z,100844.03
2023-01-03T14:16:26.676Z,100779.16
2023-01-03T14:19:05.004Z,100834.38
2023-01-03T14:21:40.252Z,100816.81
2023-01-03T14:24:15.132Z,100829.06
2023-01-03T14:26:42.757Z,100857.13
2023-01-03T14:29:11.287Z,100857.13
2023-01-03T14:31:40.153Z,100859.72
2023-01-03T14:34:11.417Z,100836.97
2023-01-03T14:36:45.863Z,100786.09
2023-01-03T14:39:21.853Z,100852.69
2023-01-03T14:41:49.589Z,100862.31
2023-01-03T14:44:17.822Z,100810.56
2023-01-03T14:46:50.423Z,100846.50
2023-01-03T14:49:21.306Z,100865.78
2023-01-03T14:51:48.919Z,100868.41
2023-01-03T14:54:19.458Z,100841.22
2023-01-03T14:56:47.070Z,100873.66
2023-01-03T14:59:14.781Z,100831.56
2023-01-03T15:01:43.137Z,100846.47
2023-01-03T15:04:11.981Z,100837.66
2023-01-03T15:06:39.563Z,100870.06
2023-01-03T15:09:15.909Z,100870.06
2023-01-03T15:11:56.970Z,100851.63
2023-01-03T15:14:24.828Z,100854.22
2023-01-03T15:16:52.463Z,100834.00
2023-01-03T15:19:21.764Z,100880.44
2023-01-03T15:21:49.357Z,100882.22
2023-01-03T15:24:17.814Z,100875.19
2023-01-03T15:26:47.673Z,100868.09
2023-01-03T15:29:16.505Z,100877.78
2023-01-03T15:31:48.642Z,100880.38
2023-01-03T15:34:17.961Z,100852.22
2023-01-03T15:36:47.311Z,100887.28
2023-01-03T15:39:18.319Z,100892.53
2023-01-03T15:42:42.180Z,100888.97
2023-01-03T15:44:52.733Z,100890.69
2023-01-03T15:47:20.538Z,100888.88
2023-01-03T15:49:50.245Z,100894.94
2023-01-03T15:52:17.960Z,100888.75
2023-01-03T15:54:46.083Z,100854.44
2023-01-03T15:57:16.494Z,100856.22
2023-01-03T15:59:44.282Z,100888.69
2023-01-03T16:02:14.713Z,100887.69
2023-01-03T16:04:42.774Z,100885.94
2023-01-03T16:07:12.413Z,100883.25
2023-01-03T16:09:40.126Z,100826.13
2023-01-03T16:12:08.717Z,100870.91
2023-01-03T16:14:39.405Z,100830.53
2023-01-03T16:17:07.188Z,100819.94
2023-01-03T16:19:34.963Z,100867.38
2023-01-03T16:24:51.870Z,100863.88
2023-01-03T16:27:20.896Z,100791.88
2023-01-03T16:29:50.932Z,100874.31
2023-01-03T16:32:19.413Z,100850.59
2023-01-03T16:34:47.675Z,100876.00
2023-01-03T16:37:16.288Z,100873.38
2023-01-03T16:39:48.016Z,100876.00
2023-01-03T16:42:16.432Z,100881.22
2023-01-03T16:44:44.883Z,100872.41
2023-01-03T16:47:15.825Z,100870.69
2023-01-03T16:49:43.454Z,100880.19
2023-01-03T16:52:13.555Z,100870.63
2023-01-03T16:54:41.564Z,100869.78
2023-01-03T16:57:10.840Z,100864.53
2023-01-03T16:59:38.452Z,100872.38
2023-01-03T17:02:06.181Z,100864.47
2023-01-03T17:04:35.331Z,100880.25
2023-01-03T17:07:03.039Z,100868.84
2023-01-03T17:09:32.411Z,100868.81
2023-01-03T17:11:59.958Z,100862.72
2023-01-03T17:14:28.575Z,100860.13
2023-01-03T17:16:58.366Z,100874.91
2023-01-03T17:22:16.457Z,100816.03
2023-01-03T17:24:44.201Z,100866.09
2023-01-03T17:27:16.371Z,100866.94
2023-01-03T17:29:43.981Z,100873.09
2023-01-03T17:32:16.332Z,100881.75
2023-01-03T17:34:44.005Z,100887.03
2023-01-03T17:37:14.977Z,100875.66
2023-01-03T17:39:44.025Z,100846.53
2023-01-03T17:42:16.452Z,100880.84
2023-01-03T17:45:05.293Z,100880.00
2023-01-03T17:47:50.791Z,100873.00
2023-01-03T17:50:18.454Z,100879.94
2023-01-03T17:52:48.977Z,100889.56
2023-01-03T17:55:23.659Z,100861.44
2023-01-03T17:57:51.619Z,100854.47
2023-01-03T18:00:21.463Z,100877.31
2023-01-03T18:02:49.377Z,100875.50
2023-01-03T18:05:22.959Z,100836.91
2023-01-03T18:07:54.100Z,100827.25
2023-01-03T18:10:38.706Z,100819.38
2023-01-03T18:13:18.564Z,100872.09
2023-01-03T18:15:46.211Z,100878.22
2023-01-03T18:18:15.060Z,100876.47
2023-01-03T18:20:42.826Z,100880.78
2023-01-03T18:23:15.846Z,100865.03
2023-01-03T18:25:44.928Z,100868.63
2023-01-03T18:28:12.591Z,100865.09
2023-01-03T18:30:40.199Z,100844.88
2023-01-03T18:33:07.845Z,100857.25
2023-01-03T18:35:38.241Z,100858.97
2023-01-03T18:38:06.210Z,100872.97
2023-01-03T18:40:33.865Z,100871.19
2023-01-03T18:43:10.406Z,100836.88
2023-01-03T18:45:38.228Z,100866.84
2023-01-03T18:48:06.392Z,100858.81
2023-01-03T18:50:34.059Z,100858.09
2023-01-03T18:53:04.081Z,100840.50
2023-01-03T18:55:33.113Z,100765.84
2023-01-03T18:58:05.791Z,100355.31
2023-01-03T19:00:33.523Z,100876.25
2023-01-03T19:03:01.509Z,100690.31
2023-01-03T19:05:29.395Z,100572.00
2023-01-03T19:07:58.361Z,100549.47
2023-01-03T19:10:26.517Z,100824.19
2023-01-03T19:12:55.543Z,100772.31
2023-01-03T19:15:25.995Z,100394.50
2023-01-03T19:17:53.682Z,100764.91
2023-01-03T19:20:26.503Z,100550.63
2023-01-03T19:22:54.880Z,100598.06
2023-01-03T19:25:25.305Z,100607.34
2023-01-03T19:27:54.376Z,100706.53
2023-01-03T19:30:27.222Z,100675.44
2023-01-03T19:32:57.450Z,100785.88
2023-01-03T19:35:25.225Z,100711.84
2023-01-03T19:37:53.181Z,100756.19
2023-01-03T19:40:21.723Z,100475.41
2023-01-03T19:42:52.604Z,100517.53
2023-01-03T19:45:25.495Z,100477.66
2023-01-03T19:47:53.428Z,100359.06
2023-01-03T19:50:22.150Z,100843.44
2023-01-03T19:52:50.158Z,100564.59
2023-01-03T19:55:18.433Z,100629.84
2023-01-03T19:57:49.002Z,100715.69
2023-01-03T20:00:19.356Z,100387.16
2023-01-03T20:02:49.249Z,100507.25
2023-01-03T20:05:18.981Z,100766.75
2023-01-03T20:07:47.557Z,100744.97
2023-01-03T20:10:16.915Z,100383.66
2023-01-03T20:12:44.819Z,100743.00
2023-01-03T20:15:23.676Z,100649.09
2023-01-03T20:17:53.046Z,100500.53
2023-01-03T20:20:22.601Z,100281.72
2023-01-03T20:23:04.556Z,100430.69
2023-01-03T20:25:38.340Z,100802.41
2023-01-03T20:28:06.606Z,100497.13
2023-01-03T20:30:34.957Z,100613.00
2023-01-03T20:33:04.535Z,100845.41
2023-01-03T20:38:25.182Z,100740.81
2023-01-03T20:40:53.275Z,100740.50
2023-01-03T20:43:21.418Z,100493.72
2023-01-03T20:45:51.804Z,100544.09
2023-01-03T20:48:25.518Z,100478.22
2023-01-03T20:50:53.793Z,100567.91
2023-01-03T20:53:22.886Z,100784.03
2023-01-03T20:55:50.882Z,100640.28
2023-01-03T20:58:19.723Z,100730.88
2023-01-03T21:00:47.882Z,100660.00
2023-01-03T21:03:16.173Z,100444.72
2023-01-03T21:05:46.557Z,100557.75
2023-01-03T21:08:33.608Z,100641.09
2023-01-03T21:11:01.529Z,100463.13
2023-01-03T21:13:29.253Z,100583.59
2023-01-03T21:15:57.227Z,100446.22
2023-01-03T21:18:25.217Z,100626.81
2023-01-03T21:20:54.335Z,100685.03
2023-01-03T21:23:23.217Z,100633.09
2023-01-03T21:25:50.992Z,100756.03
2023-01-03T21:28:18.794Z,100682.81
2023-01-03T21:30:46.721Z,100622.38
2023-01-03T21:33:17.113Z,100704.50
2023-01-03T21:35:45.453Z,100516.97
2023-01-03T21:38:14.887Z,100524.84
2023-01-03T21:40:42.969Z,100588.53
2023-01-03T21:43:10.993Z,100830.78
2023-01-03T21:45:43.344Z,100181.28
2023-01-03T21:48:12.646Z,100718.56
2023-01-03T21:50:42.242Z,100343.72
2023-01-03T21:53:11.817Z,100534.91
2023-01-03T21:55:41.624Z,100547.97
2023-01-03T21:58:09.797Z,100541.84
2023-01-03T22:00:37.808Z,100456.03
2023-01-03T22:03:23.067Z,100609.25
2023-01-03T22:05:53.026Z,100652.34
2023-01-03T22:08:21.231Z,100561.69
2023-01-03T22:10:50.921Z,100437.41
2023-01-03T22:13:19.567Z,100438.69
2023-01-03T22:15:47.593Z,100717.75
2023-01-03T22:18:18.427Z,100563.00
2023-01-03T22:20:46.276Z,100764.81
2023-01-03T22:23:16.771Z,100698.56
2023-01-03T22:25:44.693Z,100388.91
2023-01-03T22:28:14.336Z,100287.31
2023-01-03T22:30:42.000Z,100257.91
2023-01-03T22:33:10.511Z,100638.47
2023-01-03T22:35:38.193Z,100449.25
2023-01-03T22:38:05.935Z,100728.19
2023-01-03T22:40:33.672Z,100267.38
2023-01-03T22:43:01.387Z,100316.94
2023-01-03T22:45:30.611Z,100475.97
2023-01-03T22:47:59.213Z,100486.47
2023-01-03T22:50:27.058Z,100464.91
2023-01-03T22:52:55.188Z,100661.84
2023-01-03T22:55:26.782Z,100610.53
2023-01-03T22:57:59.465Z,100564.25
2023-01-03T23:00:27.867Z,100545.66
2023-01-03T23:02:57.115Z,100304.97
2023-01-03T23:05:24.888Z,100350.44
2023-01-03T23:07:53.730Z,100480.88
2023-01-03T23:10:21.472Z,100457.34
2023-01-03T23:13:00.725Z,100520.28
2023-01-03T23:15:29.188Z,100283.53
2023-01-03T23:17:58.553Z,100456.91
2023-01-03T23:20:27.671Z,100562.56
2023-01-03T23:22:59.681Z,100325.13
2023-01-03T23:25:28.010Z,100523.41
2023-01-03T23:27:55.868Z,100329.94
2023-01-03T23:30:23.476Z,100484.34
2023-01-03T23:32:51.158Z,100590.44
2023-01-03T23:35:20.605Z,100317.47
2023-01-03T23:37:48.424Z,100432.78
2023-01-03T23:40:16.205Z,100309.91
2023-01-03T23:42:44.050Z,100417.09
2023-01-03T23:45:12.044Z,100478.75
2023-01-03T23:47:39.683Z,100401.09
2023-01-03T23:50:07.629Z,100345.63
2023-01-03T23:52:36.680Z,100450.94
2023-01-03T23:55:12.215Z,100467.41
2023-01-03T23:57:41.051Z,100284.59
